Etusivu
METAR-TAF:

METAR-TAF

Lentoasemat :

Alger, Algeria

Leveyspiiri: 36-43N, Pituuspiiri: 003-15E, korkeus merenpinnasta: 25 m

Tämänhetkinen sää

Tämä raportti tehtiin 15 minuuttia sitten, kello 00.00 UTC
Tuuli 3 kn pohjoisesta/koillisesta
Lämpötila 19°C
Kosteus 88%
Ilmanpaine 1017 hPa
Näkyvyys 10 km tai enemmän
ei pilviä alle 1500 m:ssä eikä cumulonimbus-pilviä

METAR: DAAG 260000Z 03003KT CAVOK 19/17 Q1017

Aika: 01:15 (00:15 UTC)

Sääennuste

Tämä raportti tehtiin 1 tunti ja 15 minuuttia sitten, kello 23.00 UTC
Ennuste voimassa 26. päivästä klo 00 UTC - 26. päivään klo 24 UTC
Tuuli 2 kn eri suunnista
Näkyvyys 10 km tai enemmän
ei pilviä alle 1500 m:ssä eikä cumulonimbus-pilviä
Tulossa
26. päivästä klo 10 UTC - 26. päivään klo 12 UTC
Tuuli 10 kn pohjoisesta/koillisesta

TAF: DAAG 252300Z 2600/2624 VRB02KT CAVOK BECMG 2610/2612 02010KT

Säähavainnot ja -ennusteet yli 4000 lentoasemalta (METAR- ja TAF-raportit).

Käytössä olevat sääasemat on merkitty karttaan keltaisilla ja punaisilla pisteillä.

Aseta hiiri pisteen päälle nähdäksesi sääaseman nimen.

Klikkaa sitten nähdäksesi säähavainnot ja -ennusteet.

Kartan vaihtaminen: klikkaa mustalla rastilla varustettuja vihreitä pisteitä, niin voit zoomata sisään; viivalla varustettua vihreää pistettä, niin voit zoomata ulos tai vihreitä nuolia, niin pääset viereisille kartoille.


METAR-TAF: